createdAt,value
2022-11-14T00:03:40.700Z,61.26
2022-11-14T00:07:59.377Z,61.51
2022-11-14T00:12:18.333Z,61.86
2022-11-14T00:16:37.178Z,61.71
2022-11-14T00:20:58.813Z,62.21
2022-11-14T00:25:17.406Z,62.43
2022-11-14T00:29:35.870Z,62.21
2022-11-14T00:33:54.469Z,61.60
2022-11-14T00:38:17.645Z,61.36
2022-11-14T00:42:37.744Z,62.08
2022-11-14T00:46:56.750Z,62.48
2022-11-14T00:51:16.118Z,61.53
2022-11-14T00:55:37.761Z,61.46
2022-11-14T00:59:56.637Z,61.19
2022-11-14T01:04:15.354Z,60.87
2022-11-14T01:08:34.420Z,60.80
2022-11-14T01:12:55.769Z,60.82
2022-11-14T01:17:14.583Z,60.75
2022-11-14T01:21:33.474Z,61.33
2022-11-14T01:25:52.034Z,60.94
2022-11-14T01:30:15.772Z,60.80
2022-11-14T01:34:34.412Z,60.92
2022-11-14T01:38:57.103Z,60.76
2022-11-14T01:43:31.651Z,60.70
2022-11-14T01:47:52.987Z,60.91
2022-11-14T01:52:17.561Z,60.67
2022-11-14T01:56:41.038Z,60.68
2022-11-14T02:01:00.944Z,60.81
2022-11-14T02:05:22.795Z,60.92
2022-11-14T02:09:45.697Z,60.36
2022-11-14T02:14:04.845Z,60.02
2022-11-14T02:18:23.315Z,60.83
2022-11-14T02:22:45.728Z,60.56
2022-11-14T02:27:05.219Z,60.65
2022-11-14T02:31:23.883Z,61.02
2022-11-14T02:35:42.684Z,60.88
2022-11-14T02:40:04.124Z,60.57
2022-11-14T02:44:22.895Z,60.93
2022-11-14T02:48:41.833Z,61.48
2022-11-14T02:53:00.441Z,61.06
2022-11-14T02:57:21.340Z,61.08
2022-11-14T03:01:40.419Z,61.15
2022-11-14T03:06:02.641Z,60.94
2022-11-14T03:10:21.902Z,61.09
2022-11-14T03:14:43.789Z,61.60
2022-11-14T03:19:02.546Z,60.95
2022-11-14T03:23:21.272Z,61.32
2022-11-14T03:27:40.061Z,61.08
2022-11-14T03:32:01.165Z,60.78
2022-11-14T03:36:19.789Z,60.68
2022-11-14T03:40:42.079Z,61.02
2022-11-14T03:45:00.822Z,61.52
2022-11-14T03:49:22.347Z,61.08
2022-11-14T03:53:41.097Z,60.53
2022-11-14T03:57:59.666Z,60.32
2022-11-14T04:02:18.482Z,60.18
2022-11-14T04:06:39.711Z,61.07
2022-11-14T04:10:58.377Z,61.46
2022-11-14T04:15:16.821Z,61.58
2022-11-14T04:19:35.656Z,61.60
2022-11-14T04:23:57.116Z,61.78
2022-11-14T04:28:16.859Z,61.94
2022-11-14T04:32:35.674Z,61.49
2022-11-14T04:36:54.714Z,60.76
2022-11-14T04:41:16.063Z,60.99
2022-11-14T04:45:34.646Z,61.29
2022-11-14T04:49:53.364Z,61.30
2022-11-14T04:54:12.219Z,61.19
2022-11-14T04:58:33.486Z,61.29
2022-11-14T05:02:52.552Z,61.19
2022-11-14T05:07:11.056Z,61.35
2022-11-14T05:11:29.912Z,60.93
2022-11-14T05:15:51.347Z,60.67
2022-11-14T05:20:11.649Z,60.65
2022-11-14T05:24:30.383Z,61.12
2022-11-14T05:28:48.913Z,60.96
2022-11-14T05:33:10.053Z,61.76
2022-11-14T05:37:28.793Z,60.96
2022-11-14T05:41:47.267Z,61.18
2022-11-14T05:46:08.957Z,60.90
2022-11-14T05:50:30.282Z,61.09
2022-11-14T05:54:48.911Z,61.09
2022-11-14T05:59:07.826Z,61.00
2022-11-14T06:03:26.651Z,61.06
2022-11-14T06:07:48.948Z,60.99
2022-11-14T06:12:08.689Z,61.31
2022-11-14T06:16:27.197Z,60.95
2022-11-14T06:20:45.674Z,61.01
2022-11-14T06:25:07.249Z,60.85
2022-11-14T06:29:29.103Z,61.18
2022-11-14T06:33:50.632Z,61.75
2022-11-14T06:38:09.499Z,61.65
2022-11-14T06:42:30.972Z,61.69
2022-11-14T06:46:49.481Z,61.98
2022-11-14T06:51:09.849Z,61.11
2022-11-14T06:55:28.479Z,61.60
2022-11-14T06:59:49.584Z,62.91
2022-11-14T07:04:08.369Z,62.38
2022-11-14T07:08:27.760Z,62.34
2022-11-14T07:13:33.141Z,62.23
2022-11-14T07:17:55.241Z,62.33
2022-11-14T07:22:14.399Z,62.06
2022-11-14T07:26:33.501Z,61.68
2022-11-14T07:30:52.437Z,61.62
2022-11-14T07:35:23.570Z,61.42
2022-11-14T07:39:46.727Z,61.23
2022-11-14T07:44:26.883Z,60.32
2022-11-14T07:48:46.134Z,59.43
2022-11-14T07:53:07.594Z,59.34
2022-11-14T07:57:26.733Z,58.75
2022-11-14T08:01:45.205Z,58.80
2022-11-14T08:06:04.799Z,58.29
2022-11-14T08:10:29.680Z,58.37
2022-11-14T08:14:51.109Z,57.32
2022-11-14T08:19:10.246Z,57.45
2022-11-14T08:23:28.637Z,56.27
2022-11-14T08:27:50.111Z,54.14
2022-11-14T08:32:08.839Z,54.90
2022-11-14T08:36:27.853Z,54.90
2022-11-14T08:40:47.049Z,54.68
2022-11-14T08:45:11.225Z,54.29
2022-11-14T08:49:31.621Z,53.45
2022-11-14T08:53:52.525Z,52.75
2022-11-14T08:58:13.383Z,51.62
2022-11-14T09:02:35.633Z,51.17
2022-11-14T09:06:55.200Z,50.66
2022-11-14T09:11:18.982Z,48.82
2022-11-14T09:15:38.763Z,48.88
2022-11-14T09:20:01.023Z,46.65
2022-11-14T09:24:20.084Z,47.96
2022-11-14T09:28:41.098Z,46.52
2022-11-14T09:33:11.073Z,46.79
2022-11-14T09:37:34.678Z,46.26
2022-11-14T09:42:17.353Z,45.22
2022-11-14T09:46:45.388Z,43.15
2022-11-14T09:51:13.126Z,42.55
2022-11-14T09:55:37.697Z,41.42
2022-11-14T10:00:03.745Z,41.22
2022-11-14T10:04:40.633Z,41.67
2022-11-14T10:09:38.597Z,41.44
2022-11-14T10:14:41.175Z,41.81
2022-11-14T10:19:18.954Z,40.58
2022-11-14T10:23:48.907Z,40.09
2022-11-14T10:28:49.839Z,41.36
2022-11-14T10:33:52.830Z,40.80
2022-11-14T10:38:23.051Z,39.35
2022-11-14T10:42:59.175Z,38.80
2022-11-14T10:47:38.789Z,37.66
2022-11-14T10:58:07.209Z,36.18
2022-11-14T11:03:08.805Z,36.19
2022-11-14T11:12:49.804Z,34.90
2022-11-14T11:17:21.258Z,34.58
2022-11-14T11:21:52.829Z,33.95
2022-11-14T11:26:22.897Z,34.52
2022-11-14T11:30:42.332Z,33.12
2022-11-14T11:35:03.896Z,33.77
2022-11-14T11:39:30.871Z,33.70
2022-11-14T11:43:58.047Z,33.28
2022-11-14T11:48:22.337Z,32.13
2022-11-14T11:52:51.744Z,32.34
2022-11-14T11:57:22.078Z,31.96
2022-11-14T12:01:43.650Z,31.62
2022-11-14T12:06:18.048Z,30.15
2022-11-14T12:11:30.236Z,30.21
2022-11-14T12:22:45.212Z,30.56
2022-11-14T12:54:58.086Z,34.40
2022-11-14T13:11:11.365Z,32.54
2022-11-14T13:22:03.129Z,35.41
2022-11-14T13:27:24.799Z,36.03
2022-11-14T13:31:54.398Z,36.16
2022-11-14T13:42:18.370Z,33.77
2022-11-14T13:47:12.061Z,33.26
2022-11-14T13:51:48.220Z,33.02
2022-11-14T13:56:27.360Z,33.63
2022-11-14T14:01:14.638Z,35.80
2022-11-14T14:06:03.987Z,36.56
2022-11-14T14:10:38.663Z,36.02
2022-11-14T14:15:15.516Z,34.87
2022-11-14T14:19:58.799Z,34.10
2022-11-14T14:24:52.705Z,34.38
2022-11-14T14:29:30.169Z,35.54
2022-11-14T14:33:52.032Z,36.75
2022-11-14T14:38:26.041Z,36.77
2022-11-14T14:42:49.894Z,36.97
2022-11-14T14:47:20.744Z,36.61
2022-11-14T14:51:42.916Z,36.43
2022-11-14T14:56:07.629Z,36.09
2022-11-14T15:00:29.828Z,36.62
2022-11-14T15:04:51.493Z,36.93
2022-11-14T15:09:17.885Z,37.99
2022-11-14T15:13:40.231Z,39.76
2022-11-14T15:18:00.919Z,41.00
2022-11-14T15:22:29.301Z,42.07
2022-11-14T15:26:50.706Z,43.25
2022-11-14T15:31:24.230Z,44.13
2022-11-14T15:35:44.219Z,44.27
2022-11-14T15:40:20.718Z,44.75
2022-11-14T15:44:42.316Z,44.93
2022-11-14T15:49:09.685Z,45.79
2022-11-14T15:53:33.416Z,46.61
2022-11-14T15:58:13.601Z,47.53
2022-11-14T16:02:34.588Z,47.82
2022-11-14T16:06:55.885Z,47.60
2022-11-14T16:11:15.415Z,48.15
2022-11-14T16:15:34.789Z,49.34
2022-11-14T16:19:53.342Z,49.47
2022-11-14T16:24:19.725Z,50.32
2022-11-14T16:28:39.129Z,50.12
2022-11-14T16:32:57.788Z,50.31
2022-11-14T16:37:17.547Z,51.18
2022-11-14T16:41:38.958Z,52.05
2022-11-14T16:45:57.368Z,52.81
2022-11-14T16:50:16.282Z,53.52
2022-11-14T16:54:34.960Z,53.59
2022-11-14T16:58:59.647Z,54.01
2022-11-14T17:03:18.913Z,54.13
2022-11-14T17:07:37.840Z,53.97
2022-11-14T17:11:56.833Z,54.21
2022-11-14T17:16:18.720Z,54.31
2022-11-14T17:20:39.564Z,54.82
2022-11-14T17:24:58.390Z,54.63
2022-11-14T17:29:17.266Z,55.00
2022-11-14T17:33:38.702Z,55.24
2022-11-14T17:38:00.333Z,55.39
2022-11-14T17:42:19.495Z,55.69
2022-11-14T17:46:38.287Z,55.17
2022-11-14T17:51:05.617Z,54.47
2022-11-14T17:55:24.753Z,54.97
2022-11-14T17:59:43.714Z,54.76
2022-11-14T18:04:06.169Z,55.69
2022-11-14T18:08:29.243Z,55.52
2022-11-14T18:12:48.168Z,56.31
2022-11-14T18:17:12.692Z,56.27
2022-11-14T18:21:32.304Z,57.21
2022-11-14T18:25:53.315Z,56.87
2022-11-14T18:30:34.692Z,58.87
2022-11-14T18:34:52.252Z,59.37
2022-11-14T18:39:11.489Z,59.00
2022-11-14T18:43:34.765Z,58.63
2022-11-14T18:47:53.312Z,58.25
2022-11-14T18:52:17.235Z,57.77
2022-11-14T18:56:36.348Z,58.27
2022-11-14T19:00:57.359Z,58.10
2022-11-14T19:05:16.466Z,57.55
2022-11-14T19:09:35.608Z,57.99
2022-11-14T19:13:54.284Z,58.83
2022-11-14T19:18:15.617Z,58.06
2022-11-14T19:22:34.920Z,58.75
2022-11-14T19:26:53.540Z,59.01
2022-11-14T19:31:13.473Z,59.01
2022-11-14T19:35:34.635Z,59.48
2022-11-14T19:39:55.592Z,60.72
2022-11-14T19:44:14.267Z,60.75
2022-11-14T19:48:32.776Z,59.48
2022-11-14T19:52:54.831Z,59.53
2022-11-14T19:57:13.679Z,60.10
2022-11-14T20:01:32.500Z,60.21
2022-11-14T20:06:45.275Z,60.17
2022-11-14T20:12:02.458Z,60.25
2022-11-14T20:17:22.175Z,59.69
2022-11-14T20:28:11.123Z,59.79
2022-11-14T21:10:45.971Z,62.54
2022-11-14T21:15:52.287Z,60.79
2022-11-14T21:25:41.220Z,61.25
2022-11-14T21:30:00.559Z,60.36
2022-11-14T21:34:19.956Z,60.29
2022-11-14T21:38:38.539Z,59.80
2022-11-14T21:42:59.630Z,60.02
2022-11-14T21:47:18.192Z,59.59
2022-11-14T21:51:36.793Z,59.95
2022-11-14T21:55:55.907Z,60.11
2022-11-14T22:00:18.741Z,60.38
2022-11-14T22:04:39.129Z,59.92
2022-11-14T22:08:58.873Z,60.45
2022-11-14T22:13:17.880Z,60.27
2022-11-14T22:17:40.749Z,60.59
2022-11-14T22:21:59.828Z,60.27
2022-11-14T22:26:18.789Z,60.27
2022-11-14T22:30:37.206Z,60.27
2022-11-14T22:34:58.240Z,60.20
2022-11-14T22:39:16.998Z,60.32
2022-11-14T22:43:37.426Z,60.39
2022-11-14T22:48:00.392Z,60.80
2022-11-14T22:52:21.419Z,61.35
2022-11-14T22:56:39.973Z,61.51
2022-11-14T23:00:59.015Z,60.78
2022-11-14T23:05:17.721Z,60.34
2022-11-14T23:09:39.306Z,60.52
2022-11-14T23:14:00.447Z,60.33
2022-11-14T23:18:19.580Z,60.12
2022-11-14T23:22:39.867Z,60.51
2022-11-14T23:27:00.837Z,61.23
2022-11-14T23:31:19.840Z,61.39
2022-11-14T23:35:38.228Z,60.87
2022-11-14T23:39:56.773Z,60.92
2022-11-14T23:44:18.469Z,60.29
2022-11-14T23:48:37.229Z,60.89
2022-11-14T23:52:55.943Z,60.67
2022-11-14T23:57:14.425Z,60.55
